John M. Rivers (jr) — WDB8997 — position and weather

sailwx.info

Track history (hours):
 
Tides and Currents Weather Stations Pressure Air Temp Water Temp Dewpoint Dewpoint Depression Visibility Wind Speed Wind Dir Waves Ship Positions

John M. Rivers (jr)

Owner: INGRAM BARGE COMPANY, Nashville, TN. More information available from US FCC via Universal Licensing System and Coast Guard Vessel Documentation Center.

Last reported at 2015-Nov-28 09:32 UTC. Time now 2016-Feb-06 11:37 UTC.
Position N 41°31' W 090°34'.
Warning: this ship's position is months out of date.

Length 41 m; draft 3 m.

Type: Towing. MMSI: 366967620.

Date/timePositionNaut miles runAvg speedWind from/ knotsBaromVisibWave heightAir tempDewpointWater temp
2015-Nov-28 09:32N 41°31' W 090°34'1 0.7
2015-Nov-28 08:33N 41°31' W 090°34'  
2015-Nov-24 20:26N 41°31' W 090°28'3 3.4
2015-Nov-24 19:33N 41°31' W 090°32'3 2.8
2015-Nov-24 18:27N 41°30' W 090°36'0 0.0
2015-Nov-22 15:33N 41°30' W 090°36'2 1.8
2015-Nov-22 14:33N 41°31' W 090°34'0 0.1
2015-Nov-22 13:33N 41°31' W 090°34'1 1.4
2015-Nov-22 12:30N 41°32' W 090°32'0 0.0
2015-Nov-22 11:28N 41°32' W 090°32'0 0.0
2015-Nov-22 10:31N 41°32' W 090°32'1 0.5
2015-Nov-22 09:33N 41°31' W 090°31'  
Track history (hours):
 
Tides and Currents Weather Stations Pressure Air Temp Water Temp Dewpoint Dewpoint Depression Visibility Wind Speed Wind Dir Waves Ship Positions

John M. Rivers (jr)

Owner: INGRAM BARGE COMPANY, Nashville, TN. More information available from US FCC via Universal Licensing System and Coast Guard Vessel Documentation Center.

Last reported at 2015-Nov-28 09:32 UTC. Time now 2016-Feb-06 11:37 UTC.
Position N 41°31' W 090°34'.
Warning: this ship's position is months out of date.

Length 41 m; draft 3 m.

Type: Towing. MMSI: 366967620.

Date/timePositionNaut miles runAvg speedWind from/ knotsBaromVisibWave heightAir tempDewpointWater temp
2015-Nov-28 09:32N 41°31' W 090°34'1 0.7
2015-Nov-28 08:33N 41°31' W 090°34'  
2015-Nov-24 20:26N 41°31' W 090°28'3 3.4
2015-Nov-24 19:33N 41°31' W 090°32'3 2.8
2015-Nov-24 18:27N 41°30' W 090°36'0 0.0
2015-Nov-22 15:33N 41°30' W 090°36'2 1.8
2015-Nov-22 14:33N 41°31' W 090°34'0 0.1
2015-Nov-22 13:33N 41°31' W 090°34'1 1.4
2015-Nov-22 12:30N 41°32' W 090°32'0 0.0
2015-Nov-22 11:28N 41°32' W 090°32'0 0.0
2015-Nov-22 10:31N 41°32' W 090°32'1 0.5
2015-Nov-22 09:33N 41°31' W 090°31'  

Dump ship's entire track history